CYZV

Sept-Iles Airport

Code ICAO CYZV
Code IATA YZV
Nom Sept-Iles Airport
Emplacement Sept-Iles, Quebec, CA
Élévation 180 pieds / 54.9 mètres
Latitude 50.22333333
Longitude -66.26555556
METAR CYZV 091000Z 01007KT 15SM FEW140 FEW240 M19/M23 A3008 RMK AC1CI2 AC TR SLP193
Informations extras Afficher cartes et CFS
Afficher NOTAMS
Piste Longueur Largeur Surface Élévation
09 6552 ft 150 ft ASP 164 ft
13 5771 ft 200 ft ASP 170 ft
27 6552 ft 150 ft ASP 174 ft
31 5771 ft 200 ft ASP 174 ft

Routes obligatoires

Sept-Iles Airport

Direction Destination Niveau Remarque Type Route
DEP TO SW H&L A120 & ABV RNAV MIVAX
DEP TO SW L A100 & BLW YZV V316 MIVAX
DEP TO CYBC L RNAV YZV V316 YBC
DEP TO CYBG L RNAV YZV V316 YBC KAVMU
DEP TO CYRC L RNAV YZV V316 YBC KAVMU